sensor_id;sensor_type;location;lat;lon;timestamp;pressure;altitude;pressure_sealevel;temperature;humidity
47761;BME280;33524;55.434;38.520;2023-10-31T00:00:32;99555.88;;;4.80;100.00
47761;BME280;33524;55.434;38.520;2023-10-31T00:03:00;99563.81;;;5.05;100.00
47761;BME280;33524;55.434;38.520;2023-10-31T00:05:28;99564.03;;;5.02;100.00
47761;BME280;33524;55.434;38.520;2023-10-31T00:07:56;99562.69;;;5.10;100.00
47761;BME280;33524;55.434;38.520;2023-10-31T00:10:24;99564.56;;;5.08;100.00
47761;BME280;33524;55.434;38.520;2023-10-31T00:12:52;99560.91;;;5.10;100.00
47761;BME280;33524;55.434;38.520;2023-10-31T00:15:20;99565.25;;;5.24;100.00
47761;BME280;33524;55.434;38.520;2023-10-31T00:17:53;99568.09;;;5.07;100.00
47761;BME280;33524;55.434;38.520;2023-10-31T00:20:24;99568.63;;;5.12;100.00
47761;BME280;33524;55.434;38.520;2023-10-31T00:22:53;99562.53;;;4.98;100.00
47761;BME280;33524;55.434;38.520;2023-10-31T00:25:21;99565.34;;;4.81;100.00
47761;BME280;33524;55.434;38.520;2023-10-31T00:27:48;99566.84;;;4.42;100.00
47761;BME280;33524;55.434;38.520;2023-10-31T00:30:17;99571.12;;;4.57;100.00
47761;BME280;33524;55.434;38.520;2023-10-31T00:32:48;99564.81;;;4.61;100.00
47761;BME280;33524;55.434;38.520;2023-10-31T00:35:15;99570.47;;;4.39;100.00
47761;BME280;33524;55.434;38.520;2023-10-31T00:37:47;99569.34;;;4.58;100.00
47761;BME280;33524;55.434;38.520;2023-10-31T00:40:15;99579.56;;;4.75;100.00
47761;BME280;33524;55.434;38.520;2023-10-31T00:42:45;99570.56;;;4.67;100.00
47761;BME280;33524;55.434;38.520;2023-10-31T00:45:14;99589.72;;;4.65;100.00
47761;BME280;33524;55.434;38.520;2023-10-31T00:47:42;99588.41;;;4.58;100.00
47761;BME280;33524;55.434;38.520;2023-10-31T00:50:10;99592.88;;;4.42;100.00
47761;BME280;33524;55.434;38.520;2023-10-31T00:52:39;99598.75;;;4.45;100.00
47761;BME280;33524;55.434;38.520;2023-10-31T00:55:07;99615.56;;;4.40;100.00
47761;BME280;33524;55.434;38.520;2023-10-31T00:57:35;99620.56;;;4.29;100.00
47761;BME280;33524;55.434;38.520;2023-10-31T01:00:07;99601.66;;;4.11;100.00
47761;BME280;33524;55.434;38.520;2023-10-31T01:02:36;99612.09;;;4.25;100.00
47761;BME280;33524;55.434;38.520;2023-10-31T01:05:04;99620.97;;;4.07;100.00
47761;BME280;33524;55.434;38.520;2023-10-31T01:07:35;99619.84;;;3.96;100.00
47761;BME280;33524;55.434;38.520;2023-10-31T01:10:04;99622.03;;;4.18;100.00
47761;BME280;33524;55.434;38.520;2023-10-31T01:12:32;99622.94;;;4.17;100.00
47761;BME280;33524;55.434;38.520;2023-10-31T01:15:01;99631.31;;;4.08;100.00
47761;BME280;33524;55.434;38.520;2023-10-31T01:17:32;99627.69;;;3.80;100.00
47761;BME280;33524;55.434;38.520;2023-10-31T01:20:00;99605.37;;;3.76;100.00
47761;BME280;33524;55.434;38.520;2023-10-31T01:22:29;99637.19;;;4.12;100.00
47761;BME280;33524;55.434;38.520;2023-10-31T01:24:58;99622.28;;;3.99;100.00
47761;BME280;33524;55.434;38.520;2023-10-31T01:27:26;99648.50;;;4.11;100.00
47761;BME280;33524;55.434;38.520;2023-10-31T01:29:54;99656.75;;;4.03;100.00
47761;BME280;33524;55.434;38.520;2023-10-31T01:32:27;99654.53;;;4.11;100.00
47761;BME280;33524;55.434;38.520;2023-10-31T01:34:55;99654.28;;;4.16;100.00
47761;BME280;33524;55.434;38.520;2023-10-31T01:37:25;99666.69;;;4.27;100.00
47761;BME280;33524;55.434;38.520;2023-10-31T01:39:53;99669.00;;;4.31;100.00
47761;BME280;33524;55.434;38.520;2023-10-31T01:42:21;99678.59;;;4.31;100.00
47761;BME280;33524;55.434;38.520;2023-10-31T01:44:50;99677.91;;;4.27;100.00
47761;BME280;33524;55.434;38.520;2023-10-31T01:47:18;99682.28;;;4.27;100.00
47761;BME280;33524;55.434;38.520;2023-10-31T01:49:46;99677.91;;;4.27;100.00
47761;BME280;33524;55.434;38.520;2023-10-31T01:52:14;99683.97;;;4.28;100.00
47761;BME280;33524;55.434;38.520;2023-10-31T01:54:46;99688.66;;;4.37;100.00
47761;BME280;33524;55.434;38.520;2023-10-31T01:57:18;99676.56;;;4.50;100.00
47761;BME280;33524;55.434;38.520;2023-10-31T01:59:58;99688.84;;;4.48;100.00
47761;BME280;33524;55.434;38.520;2023-10-31T02:02:29;99675.28;;;4.43;100.00
47761;BME280;33524;55.434;38.520;2023-10-31T02:05:01;99684.59;;;4.47;100.00
47761;BME280;33524;55.434;38.520;2023-10-31T02:07:29;99689.78;;;4.47;100.00
47761;BME280;33524;55.434;38.520;2023-10-31T02:09:57;99694.63;;;4.53;100.00
47761;BME280;33524;55.434;38.520;2023-10-31T02:12:36;99691.06;;;4.40;100.00
47761;BME280;33524;55.434;38.520;2023-10-31T02:15:07;99700.47;;;4.42;100.00
47761;BME280;33524;55.434;38.520;2023-10-31T02:17:36;99696.72;;;4.32;100.00
47761;BME280;33524;55.434;38.520;2023-10-31T02:20:08;99703.44;;;4.36;100.00
47761;BME280;33524;55.434;38.520;2023-10-31T02:22:43;99708.88;;;4.32;100.00
47761;BME280;33524;55.434;38.520;2023-10-31T02:25:17;99710.53;;;4.18;100.00
47761;BME280;33524;55.434;38.520;2023-10-31T02:27:46;99711.72;;;4.13;100.00
47761;BME280;33524;55.434;38.520;2023-10-31T02:30:15;99724.28;;;4.20;100.00
47761;BME280;33524;55.434;38.520;2023-10-31T02:32:44;99717.16;;;4.24;100.00
47761;BME280;33524;55.434;38.520;2023-10-31T02:35:12;99725.13;;;4.05;100.00
47761;BME280;33524;55.434;38.520;2023-10-31T02:37:41;99723.41;;;3.90;100.00
47761;BME280;33524;55.434;38.520;2023-10-31T02:40:13;99727.34;;;3.97;100.00
47761;BME280;33524;55.434;38.520;2023-10-31T02:42:41;99730.38;;;3.89;100.00
47761;BME280;33524;55.434;38.520;2023-10-31T02:45:14;99731.56;;;3.83;100.00
47761;BME280;33524;55.434;38.520;2023-10-31T02:47:42;99738.69;;;3.80;100.00
47761;BME280;33524;55.434;38.520;2023-10-31T02:50:10;99734.97;;;3.84;100.00
47761;BME280;33524;55.434;38.520;2023-10-31T02:52:38;99735.44;;;3.76;100.00
47761;BME280;33524;55.434;38.520;2023-10-31T02:55:16;99745.50;;;3.82;100.00
47761;BME280;33524;55.434;38.520;2023-10-31T02:57:44;99750.31;;;3.41;100.00
47761;BME280;33524;55.434;38.520;2023-10-31T03:00:13;99753.78;;;3.41;100.00
47761;BME280;33524;55.434;38.520;2023-10-31T03:02:44;99765.13;;;3.39;100.00
47761;BME280;33524;55.434;38.520;2023-10-31T03:05:12;99758.34;;;3.20;100.00
47761;BME280;33524;55.434;38.520;2023-10-31T03:07:40;99765.44;;;3.17;100.00
47761;BME280;33524;55.434;38.520;2023-10-31T03:10:11;99781.28;;;3.12;100.00
47761;BME280;33524;55.434;38.520;2023-10-31T03:12:40;99780.31;;;2.80;100.00
47761;BME280;33524;55.434;38.520;2023-10-31T03:15:08;99792.91;;;2.88;100.00
47761;BME280;33524;55.434;38.520;2023-10-31T03:17:38;99792.22;;;2.84;100.00
47761;BME280;33524;55.434;38.520;2023-10-31T03:20:06;99799.56;;;2.76;100.00
47761;BME280;33524;55.434;38.520;2023-10-31T03:22:34;99804.13;;;2.53;100.00
47761;BME280;33524;55.434;38.520;2023-10-31T03:25:03;99810.53;;;2.63;100.00
47761;BME280;33524;55.434;38.520;2023-10-31T03:27:32;99815.44;;;2.70;100.00
47761;BME280;33524;55.434;38.520;2023-10-31T03:30:00;99818.87;;;2.53;100.00
47761;BME280;33524;55.434;38.520;2023-10-31T03:32:35;99822.34;;;2.52;100.00
47761;BME280;33524;55.434;38.520;2023-10-31T03:35:04;99820.44;;;2.38;100.00
47761;BME280;33524;55.434;38.520;2023-10-31T03:37:32;99817.50;;;2.27;100.00
47761;BME280;33524;55.434;38.520;2023-10-31T03:40:01;99796.47;;;1.96;100.00
47761;BME280;33524;55.434;38.520;2023-10-31T03:42:30;99809.13;;;1.84;100.00
47761;BME280;33524;55.434;38.520;2023-10-31T03:44:58;99795.53;;;1.59;100.00
47761;BME280;33524;55.434;38.520;2023-10-31T03:47:26;99828.81;;;1.69;100.00
47761;BME280;33524;55.434;38.520;2023-10-31T03:49:55;99829.53;;;1.72;100.00
47761;BME280;33524;55.434;38.520;2023-10-31T03:52:24;99836.69;;;1.86;100.00
47761;BME280;33524;55.434;38.520;2023-10-31T03:54:52;99825.03;;;2.14;100.00
47761;BME280;33524;55.434;38.520;2023-10-31T03:57:20;99835.47;;;2.12;100.00
47761;BME280;33524;55.434;38.520;2023-10-31T03:59:48;99838.22;;;2.09;100.00
47761;BME280;33524;55.434;38.520;2023-10-31T04:02:17;99839.56;;;1.99;100.00
47761;BME280;33524;55.434;38.520;2023-10-31T04:04:48;99835.06;;;1.84;100.00
47761;BME280;33524;55.434;38.520;2023-10-31T04:07:16;99843.75;;;1.83;100.00
47761;BME280;33524;55.434;38.520;2023-10-31T04:09:44;99834.94;;;1.87;100.00
47761;BME280;33524;55.434;38.520;2023-10-31T04:12:16;99843.06;;;1.98;100.00
47761;BME280;33524;55.434;38.520;2023-10-31T04:14:50;99849.56;;;2.07;100.00
47761;BME280;33524;55.434;38.520;2023-10-31T04:17:21;99851.25;;;1.70;100.00
47761;BME280;33524;55.434;38.520;2023-10-31T04:19:49;99860.22;;;1.42;100.00
47761;BME280;33524;55.434;38.520;2023-10-31T04:22:21;99859.84;;;1.31;100.00
47761;BME280;33524;55.434;38.520;2023-10-31T04:24:49;99862.66;;;1.26;100.00
47761;BME280;33524;55.434;38.520;2023-10-31T04:27:17;99870.53;;;1.23;100.00
47761;BME280;33524;55.434;38.520;2023-10-31T04:29:46;99872.03;;;1.08;100.00
47761;BME280;33524;55.434;38.520;2023-10-31T04:32:14;99882.62;;;1.02;100.00
47761;BME280;33524;55.434;38.520;2023-10-31T04:34:43;99879.84;;;1.07;100.00
47761;BME280;33524;55.434;38.520;2023-10-31T04:37:11;99884.66;;;1.16;100.00
47761;BME280;33524;55.434;38.520;2023-10-31T04:39:39;99890.47;;;1.21;100.00
47761;BME280;33524;55.434;38.520;2023-10-31T04:42:07;99891.16;;;1.26;100.00
47761;BME280;33524;55.434;38.520;2023-10-31T04:44:35;99897.88;;;1.30;100.00
47761;BME280;33524;55.434;38.520;2023-10-31T04:47:03;99901.75;;;1.40;100.00
47761;BME280;33524;55.434;38.520;2023-10-31T04:49:39;99895.53;;;1.45;100.00
47761;BME280;33524;55.434;38.520;2023-10-31T04:52:07;99899.75;;;1.47;100.00
47761;BME280;33524;55.434;38.520;2023-10-31T04:54:35;99909.00;;;1.53;100.00
47761;BME280;33524;55.434;38.520;2023-10-31T04:57:03;99916.72;;;1.54;100.00
47761;BME280;33524;55.434;38.520;2023-10-31T04:59:32;99897.84;;;1.51;100.00
47761;BME280;33524;55.434;38.520;2023-10-31T05:02:00;99930.91;;;1.66;100.00
47761;BME280;33524;55.434;38.520;2023-10-31T05:04:27;99932.97;;;1.58;100.00
47761;BME280;33524;55.434;38.520;2023-10-31T05:06:57;99939.66;;;1.43;100.00
47761;BME280;33524;55.434;38.520;2023-10-31T05:09:24;99939.97;;;1.35;100.00
47761;BME280;33524;55.434;38.520;2023-10-31T05:11:53;99942.50;;;1.37;100.00
47761;BME280;33524;55.434;38.520;2023-10-31T05:14:21;99956.28;;;1.37;100.00
47761;BME280;33524;55.434;38.520;2023-10-31T05:16:49;99957.66;;;1.46;100.00
47761;BME280;33524;55.434;38.520;2023-10-31T05:19:17;99951.06;;;1.59;100.00
47761;BME280;33524;55.434;38.520;2023-10-31T05:21:45;99956.41;;;1.75;100.00
47761;BME280;33524;55.434;38.520;2023-10-31T05:24:13;99959.97;;;1.93;100.00
47761;BME280;33524;55.434;38.520;2023-10-31T05:26:41;99972.06;;;2.13;100.00
47761;BME280;33524;55.434;38.520;2023-10-31T05:29:12;99971.37;;;2.29;100.00
47761;BME280;33524;55.434;38.520;2023-10-31T05:31:40;99967.50;;;2.37;100.00
47761;BME280;33524;55.434;38.520;2023-10-31T05:34:09;99968.88;;;2.46;100.00
47761;BME280;33524;55.434;38.520;2023-10-31T05:36:37;99974.69;;;2.51;100.00
47761;BME280;33524;55.434;38.520;2023-10-31T05:39:05;99977.44;;;2.48;100.00
47761;BME280;33524;55.434;38.520;2023-10-31T05:41:36;99984.94;;;2.54;100.00
47761;BME280;33524;55.434;38.520;2023-10-31T05:44:04;99981.97;;;2.62;100.00
47761;BME280;33524;55.434;38.520;2023-10-31T05:46:37;99988.19;;;2.77;100.00
47761;BME280;33524;55.434;38.520;2023-10-31T05:49:07;99982.44;;;2.89;100.00
47761;BME280;33524;55.434;38.520;2023-10-31T05:51:35;99984.91;;;3.10;100.00
47761;BME280;33524;55.434;38.520;2023-10-31T05:54:04;99987.78;;;3.22;100.00
47761;BME280;33524;55.434;38.520;2023-10-31T05:56:34;99986.50;;;3.31;100.00
47761;BME280;33524;55.434;38.520;2023-10-31T05:59:02;99994.97;;;3.35;100.00
47761;BME280;33524;55.434;38.520;2023-10-31T06:01:30;100001.91;;;3.34;100.00
47761;BME280;33524;55.434;38.520;2023-10-31T06:03:59;99993.59;;;3.28;100.00
47761;BME280;33524;55.434;38.520;2023-10-31T06:06:27;100003.16;;;3.27;100.00
47761;BME280;33524;55.434;38.520;2023-10-31T06:08:55;100004.69;;;3.31;100.00
47761;BME280;33524;55.434;38.520;2023-10-31T06:11:23;100011.25;;;3.38;100.00
47761;BME280;33524;55.434;38.520;2023-10-31T06:13:51;100006.09;;;3.56;100.00
47761;BME280;33524;55.434;38.520;2023-10-31T06:16:19;99982.69;;;3.56;100.00
47761;BME280;33524;55.434;38.520;2023-10-31T06:18:49;99999.19;;;3.72;100.00
47761;BME280;33524;55.434;38.520;2023-10-31T06:21:16;100016.09;;;3.63;100.00
47761;BME280;33524;55.434;38.520;2023-10-31T06:23:44;100023.97;;;3.62;100.00
47761;BME280;33524;55.434;38.520;2023-10-31T06:26:14;100035.91;;;3.66;100.00
47761;BME280;33524;55.434;38.520;2023-10-31T06:28:42;100021.38;;;3.62;100.00
47761;BME280;33524;55.434;38.520;2023-10-31T06:31:28;100041.19;;;3.82;100.00
47761;BME280;33524;55.434;38.520;2023-10-31T06:33:56;100044.44;;;4.03;100.00
47761;BME280;33524;55.434;38.520;2023-10-31T06:36:24;100041.00;;;4.20;100.00
47761;BME280;33524;55.434;38.520;2023-10-31T06:38:53;100038.88;;;4.44;100.00
47761;BME280;33524;55.434;38.520;2023-10-31T06:41:21;100045.13;;;4.57;100.00
47761;BME280;33524;55.434;38.520;2023-10-31T06:43:52;100050.44;;;4.72;100.00
47761;BME280;33524;55.434;38.520;2023-10-31T06:46:20;100057.75;;;4.81;100.00
47761;BME280;33524;55.434;38.520;2023-10-31T06:48:48;100064.91;;;4.93;100.00
47761;BME280;33524;55.434;38.520;2023-10-31T06:51:16;100049.53;;;5.04;100.00
47761;BME280;33524;55.434;38.520;2023-10-31T06:53:45;100044.81;;;5.11;100.00
47761;BME280;33524;55.434;38.520;2023-10-31T06:56:12;100041.59;;;5.22;100.00
47761;BME280;33524;55.434;38.520;2023-10-31T06:58:41;100047.97;;;5.32;100.00
47761;BME280;33524;55.434;38.520;2023-10-31T07:01:09;100050.81;;;5.43;100.00
47761;BME280;33524;55.434;38.520;2023-10-31T07:03:38;100054.84;;;5.49;100.00
47761;BME280;33524;55.434;38.520;2023-10-31T07:06:07;100066.53;;;5.58;100.00
47761;BME280;33524;55.434;38.520;2023-10-31T07:08:35;100046.59;;;5.57;100.00
47761;BME280;33524;55.434;38.520;2023-10-31T07:11:03;100068.44;;;5.70;100.00
47761;BME280;33524;55.434;38.520;2023-10-31T07:13:32;100079.53;;;5.74;100.00
47761;BME280;33524;55.434;38.520;2023-10-31T07:16:00;100075.16;;;5.74;100.00
47761;BME280;33524;55.434;38.520;2023-10-31T07:18:28;100043.44;;;5.66;100.00
47761;BME280;33524;55.434;38.520;2023-10-31T07:20:56;100077.06;;;5.86;100.00
47761;BME280;33524;55.434;38.520;2023-10-31T07:23:26;100079.50;;;5.90;100.00
47761;BME280;33524;55.434;38.520;2023-10-31T07:25:54;100083.22;;;5.85;100.00
47761;BME280;33524;55.434;38.520;2023-10-31T07:28:22;100094.66;;;5.99;100.00
47761;BME280;33524;55.434;38.520;2023-10-31T07:30:50;100092.97;;;5.98;100.00
47761;BME280;33524;55.434;38.520;2023-10-31T07:33:18;100107.56;;;6.16;100.00
47761;BME280;33524;55.434;38.520;2023-10-31T07:35:46;100107.84;;;6.26;100.00
47761;BME280;33524;55.434;38.520;2023-10-31T07:38:15;100115.25;;;6.34;100.00
47761;BME280;33524;55.434;38.520;2023-10-31T07:40:43;100117.97;;;6.46;100.00
47761;BME280;33524;55.434;38.520;2023-10-31T07:43:11;100132.91;;;6.59;100.00
47761;BME280;33524;55.434;38.520;2023-10-31T07:45:40;100120.97;;;6.69;100.00
47761;BME280;33524;55.434;38.520;2023-10-31T07:48:12;100125.34;;;6.69;100.00
47761;BME280;33524;55.434;38.520;2023-10-31T07:50:43;100126.09;;;6.85;100.00
47761;BME280;33524;55.434;38.520;2023-10-31T07:53:14;100130.50;;;6.84;100.00
47761;BME280;33524;55.434;38.520;2023-10-31T07:55:43;100133.94;;;6.85;100.00
47761;BME280;33524;55.434;38.520;2023-10-31T07:58:11;100135.97;;;6.80;100.00
47761;BME280;33524;55.434;38.520;2023-10-31T08:00:39;100145.97;;;6.87;100.00
47761;BME280;33524;55.434;38.520;2023-10-31T08:03:08;100145.06;;;6.89;100.00
47761;BME280;33524;55.434;38.520;2023-10-31T08:05:36;100139.34;;;6.82;100.00
47761;BME280;33524;55.434;38.520;2023-10-31T08:08:04;100144.03;;;7.05;100.00
47761;BME280;33524;55.434;38.520;2023-10-31T08:10:33;100142.66;;;7.27;100.00
47761;BME280;33524;55.434;38.520;2023-10-31T08:13:02;100145.34;;;7.40;100.00
47761;BME280;33524;55.434;38.520;2023-10-31T08:15:30;100144.31;;;7.57;100.00
47761;BME280;33524;55.434;38.520;2023-10-31T08:17:58;100149.09;;;7.77;100.00
47761;BME280;33524;55.434;38.520;2023-10-31T08:20:26;100144.09;;;8.00;100.00
47761;BME280;33524;55.434;38.520;2023-10-31T08:23:04;100147.00;;;8.22;100.00
47761;BME280;33524;55.434;38.520;2023-10-31T08:25:32;100146.34;;;8.46;100.00
47761;BME280;33524;55.434;38.520;2023-10-31T08:28:00;100142.66;;;8.48;99.48
47761;BME280;33524;55.434;38.520;2023-10-31T08:30:29;100153.88;;;8.63;100.00
47761;BME280;33524;55.434;38.520;2023-10-31T08:32:58;100149.59;;;8.62;99.54
47761;BME280;33524;55.434;38.520;2023-10-31T08:35:26;100148.31;;;8.68;100.00
47761;BME280;33524;55.434;38.520;2023-10-31T08:37:54;100152.72;;;8.67;99.41
47761;BME280;33524;55.434;38.520;2023-10-31T08:40:23;100153.47;;;8.69;99.12
47761;BME280;33524;55.434;38.520;2023-10-31T08:42:51;100151.56;;;8.72;100.00
47761;BME280;33524;55.434;38.520;2023-10-31T08:45:19;100156.50;;;8.63;100.00
47761;BME280;33524;55.434;38.520;2023-10-31T08:47:49;100152.94;;;8.64;100.00
47761;BME280;33524;55.434;38.520;2023-10-31T08:50:18;100142.47;;;8.52;100.00
47761;BME280;33524;55.434;38.520;2023-10-31T08:52:49;100160.81;;;8.64;100.00
47761;BME280;33524;55.434;38.520;2023-10-31T08:55:20;100156.41;;;8.78;100.00
47761;BME280;33524;55.434;38.520;2023-10-31T08:57:48;100154.09;;;8.86;100.00
47761;BME280;33524;55.434;38.520;2023-10-31T09:00:20;100142.97;;;8.95;100.00
47761;BME280;33524;55.434;38.520;2023-10-31T09:02:49;100164.47;;;9.00;100.00
47761;BME280;33524;55.434;38.520;2023-10-31T09:05:17;100159.44;;;8.97;100.00
47761;BME280;33524;55.434;38.520;2023-10-31T09:07:45;100134.50;;;8.79;100.00
47761;BME280;33524;55.434;38.520;2023-10-31T09:10:14;100148.50;;;8.91;100.00
47761;BME280;33524;55.434;38.520;2023-10-31T09:12:42;100155.84;;;8.98;100.00
47761;BME280;33524;55.434;38.520;2023-10-31T09:15:10;100158.91;;;8.92;100.00
47761;BME280;33524;55.434;38.520;2023-10-31T09:17:38;100161.44;;;8.81;100.00
47761;BME280;33524;55.434;38.520;2023-10-31T09:20:07;100155.25;;;8.69;100.00
47761;BME280;33524;55.434;38.520;2023-10-31T09:22:36;100136.81;;;8.71;100.00
47761;BME280;33524;55.434;38.520;2023-10-31T09:25:04;100150.00;;;8.82;100.00
47761;BME280;33524;55.434;38.520;2023-10-31T09:27:32;100149.56;;;8.88;100.00
47761;BME280;33524;55.434;38.520;2023-10-31T09:30:01;100143.59;;;8.86;100.00
47761;BME280;33524;55.434;38.520;2023-10-31T09:32:31;100154.72;;;8.77;100.00
47761;BME280;33524;55.434;38.520;2023-10-31T09:34:59;100153.25;;;8.73;100.00
47761;BME280;33524;55.434;38.520;2023-10-31T09:37:31;100162.37;;;8.67;100.00
47761;BME280;33524;55.434;38.520;2023-10-31T09:40:02;100168.03;;;8.48;100.00
47761;BME280;33524;55.434;38.520;2023-10-31T09:42:31;100167.62;;;8.41;100.00
47761;BME280;33524;55.434;38.520;2023-10-31T09:45:00;100157.28;;;8.25;100.00
47761;BME280;33524;55.434;38.520;2023-10-31T09:47:31;100166.06;;;8.24;100.00
47761;BME280;33524;55.434;38.520;2023-10-31T09:50:00;100163.31;;;8.13;100.00
47761;BME280;33524;55.434;38.520;2023-10-31T09:52:30;100170.44;;;8.11;100.00
47761;BME280;33524;55.434;38.520;2023-10-31T09:54:58;100165.41;;;8.08;100.00
47761;BME280;33524;55.434;38.520;2023-10-31T09:57:32;100148.00;;;7.94;100.00
47761;BME280;33524;55.434;38.520;2023-10-31T10:00:00;100168.97;;;8.07;100.00
47761;BME280;33524;55.434;38.520;2023-10-31T10:02:37;100167.09;;;8.09;100.00
47761;BME280;33524;55.434;38.520;2023-10-31T10:05:07;100135.19;;;7.89;100.00
47761;BME280;33524;55.434;38.520;2023-10-31T10:07:47;100172.44;;;8.07;100.00
47761;BME280;33524;55.434;38.520;2023-10-31T10:10:21;100180.50;;;8.04;100.00
47761;BME280;33524;55.434;38.520;2023-10-31T10:12:51;100171.03;;;8.02;100.00
47761;BME280;33524;55.434;38.520;2023-10-31T10:15:19;100160.97;;;7.96;100.00
47761;BME280;33524;55.434;38.520;2023-10-31T10:17:49;100157.00;;;7.90;100.00
47761;BME280;33524;55.434;38.520;2023-10-31T10:20:18;100165.81;;;8.02;100.00
47761;BME280;33524;55.434;38.520;2023-10-31T10:22:47;100155.31;;;8.02;100.00
47761;BME280;33524;55.434;38.520;2023-10-31T10:25:17;100152.53;;;8.05;100.00
47761;BME280;33524;55.434;38.520;2023-10-31T10:27:48;100161.75;;;8.11;100.00
47761;BME280;33524;55.434;38.520;2023-10-31T10:30:17;100146.13;;;8.09;100.00
47761;BME280;33524;55.434;38.520;2023-10-31T10:32:45;100178.84;;;8.16;100.00
47761;BME280;33524;55.434;38.520;2023-10-31T10:35:13;100182.81;;;8.09;100.00
47761;BME280;33524;55.434;38.520;2023-10-31T10:37:45;100185.34;;;8.11;100.00
47761;BME280;33524;55.434;38.520;2023-10-31T10:40:15;100182.81;;;8.09;100.00
47761;BME280;33524;55.434;38.520;2023-10-31T10:42:50;100186.91;;;8.13;100.00
47761;BME280;33524;55.434;38.520;2023-10-31T10:45:25;100184.59;;;8.08;100.00
47761;BME280;33524;55.434;38.520;2023-10-31T10:47:57;100156.59;;;7.96;100.00
47761;BME280;33524;55.434;38.520;2023-10-31T10:50:30;100182.59;;;8.12;100.00
47761;BME280;33524;55.434;38.520;2023-10-31T10:53:16;100166.44;;;8.05;100.00
47761;BME280;33524;55.434;38.520;2023-10-31T10:55:51;100135.63;;;7.96;100.00
47761;BME280;33524;55.434;38.520;2023-10-31T10:58:37;100154.72;;;8.11;100.00
47761;BME280;33524;55.434;38.520;2023-10-31T11:01:09;100159.53;;;8.04;100.00
47761;BME280;33524;55.434;38.520;2023-10-31T11:03:39;100153.25;;;8.07;100.00
47761;BME280;33524;55.434;38.520;2023-10-31T11:06:08;100171.72;;;8.18;100.00
47761;BME280;33524;55.434;38.520;2023-10-31T11:08:37;100170.22;;;8.14;100.00
47761;BME280;33524;55.434;38.520;2023-10-31T11:11:06;100169.41;;;8.14;100.00
47761;BME280;33524;55.434;38.520;2023-10-31T11:13:34;100164.16;;;8.14;100.00
47761;BME280;33524;55.434;38.520;2023-10-31T11:16:09;100163.66;;;8.21;100.00
47761;BME280;33524;55.434;38.520;2023-10-31T11:18:41;100158.84;;;8.15;100.00
47761;BME280;33524;55.434;38.520;2023-10-31T11:21:09;100161.56;;;8.26;100.00
47761;BME280;33524;55.434;38.520;2023-10-31T11:23:37;100173.00;;;8.25;100.00
47761;BME280;33524;55.434;38.520;2023-10-31T11:26:07;100167.75;;;8.25;100.00
47761;BME280;33524;55.434;38.520;2023-10-31T11:28:38;100171.75;;;8.31;100.00
47761;BME280;33524;55.434;38.520;2023-10-31T11:31:08;100169.00;;;8.33;100.00
47761;BME280;33524;55.434;38.520;2023-10-31T11:33:39;100182.25;;;8.31;100.00
47761;BME280;33524;55.434;38.520;2023-10-31T11:36:10;100173.00;;;8.25;99.99
47761;BME280;33524;55.434;38.520;2023-10-31T11:38:38;100155.41;;;8.27;99.96
47761;BME280;33524;55.434;38.520;2023-10-31T11:41:10;100134.28;;;8.16;100.00
47761;BME280;33524;55.434;38.520;2023-10-31T11:46:20;100159.00;;;8.39;100.00
47761;BME280;33524;55.434;38.520;2023-10-31T11:48:52;100149.53;;;8.37;100.00
47761;BME280;33524;55.434;38.520;2023-10-31T11:51:21;100148.97;;;8.46;99.34
47761;BME280;33524;55.434;38.520;2023-10-31T11:53:49;100139.72;;;8.53;99.45
47761;BME280;33524;55.434;38.520;2023-10-31T11:56:19;100145.41;;;8.73;99.58
47761;BME280;33524;55.434;38.520;2023-10-31T11:59:04;100127.78;;;8.75;99.00
47761;BME280;33524;55.434;38.520;2023-10-31T12:01:45;100133.41;;;8.94;98.78
47761;BME280;33524;55.434;38.520;2023-10-31T12:04:24;100124.72;;;8.94;99.93
47761;BME280;33524;55.434;38.520;2023-10-31T12:06:59;100138.75;;;9.05;98.59
47761;BME280;33524;55.434;38.520;2023-10-31T12:09:30;100133.19;;;9.10;98.46
47761;BME280;33524;55.434;38.520;2023-10-31T12:12:00;100134.12;;;9.09;98.68
47761;BME280;33524;55.434;38.520;2023-10-31T12:14:28;100137.28;;;9.01;97.38
47761;BME280;33524;55.434;38.520;2023-10-31T12:17:04;100143.47;;;9.00;97.10
47761;BME280;33524;55.434;38.520;2023-10-31T12:19:33;100123.03;;;8.80;97.06
47761;BME280;33524;55.434;38.520;2023-10-31T12:22:13;100142.53;;;8.88;97.51
47761;BME280;33524;55.434;38.520;2023-10-31T12:24:41;100139.72;;;8.79;97.78
47761;BME280;33524;55.434;38.520;2023-10-31T12:27:10;100151.69;;;8.83;98.12
47761;BME280;33524;55.434;38.520;2023-10-31T12:29:39;100130.69;;;8.70;97.81
47761;BME280;33524;55.434;38.520;2023-10-31T12:32:12;100142.00;;;8.96;97.23
47761;BME280;33524;55.434;38.520;2023-10-31T12:34:43;100122.50;;;9.00;96.31
47761;BME280;33524;55.434;38.520;2023-10-31T12:37:11;100143.22;;;9.29;95.28
47761;BME280;33524;55.434;38.520;2023-10-31T12:39:42;100139.38;;;9.46;93.54
47761;BME280;33524;55.434;38.520;2023-10-31T12:42:11;100138.81;;;9.54;92.79
47761;BME280;33524;55.434;38.520;2023-10-31T12:44:39;100123.41;;;9.73;91.95
47761;BME280;33524;55.434;38.520;2023-10-31T12:47:08;100126.19;;;9.83;90.40
47761;BME280;33524;55.434;38.520;2023-10-31T12:49:37;100127.69;;;9.50;90.61
47761;BME280;33524;55.434;38.520;2023-10-31T12:52:06;100144.66;;;9.33;91.58
47761;BME280;33524;55.434;38.520;2023-10-31T12:54:37;100144.75;;;8.82;91.86
47761;BME280;33524;55.434;38.520;2023-10-31T12:57:09;100145.28;;;8.74;95.28
47761;BME280;33524;55.434;38.520;2023-10-31T12:59:38;100148.31;;;8.68;96.27